Time;durP1;ratioP1;P1;durP2;ratioP2;P2;SDS_P1;SDS_P2;PMS_P1;PMS_P2;Temp;Humidity;BMP_temperature;BMP_pressure;BME280_temperature;BME280_humidity;BME280_pressure;Samples;Min_cycle;Max_cycle;Signal;HPM_P1;HPM_P2
2021/01/04 00:00:31;;;;;;;4.68;3.42;;;3.90;99.90;;;;;;4167523;28;20033;-81
2021/01/04 00:03:09;;;;;;;3.70;2.97;;;3.90;99.90;;;;;;4171835;28;20036;-81
2021/01/04 00:05:16;;;;;;;3.55;2.80;;;3.90;99.90;;;;;;4159351;28;20032;-81
2021/01/04 00:07:34;;;;;;;4.95;2.95;;;3.90;99.90;;;;;;4170720;28;20513;-81
2021/01/04 00:10:11;;;;;;;5.35;3.55;;;3.90;99.90;;;;;;4169583;28;20033;-81
2021/01/04 00:12:17;;;;;;;4.53;2.90;;;3.80;99.90;;;;;;4179938;28;20029;-81
2021/01/04 00:14:28;;;;;;;5.10;3.28;;;3.80;99.90;;;;;;4169523;28;20706;-81
2021/01/04 00:17:19;;;;;;;3.50;2.92;;;3.80;99.90;;;;;;4171128;28;20025;-81
2021/01/04 00:19:38;;;;;;;6.38;3.55;;;3.70;99.90;;;;;;4170266;28;20035;-81
2021/01/04 00:21:57;;;;;;;3.92;2.80;;;3.70;99.90;;;;;;4145597;28;20114;-81
2021/01/04 00:24:16;;;;;;;3.92;3.00;;;3.70;99.90;;;;;;4164893;28;20022;-81
2021/01/04 00:26:48;;;;;;;5.35;3.40;;;3.70;99.90;;;;;;4171619;28;20439;-81
2021/01/04 00:28:50;;;;;;;3.95;3.00;;;3.70;99.90;;;;;;4165851;28;20025;-81
2021/01/04 00:31:07;;;;;;;4.57;3.20;;;3.70;99.90;;;;;;4151732;28;20026;-81
2021/01/04 00:33:32;;;;;;;3.17;2.38;;;3.70;99.90;;;;;;4152651;28;20104;-82
2021/01/04 00:35:33;;;;;;;4.65;2.85;;;3.70;99.90;;;;;;4153870;28;20080;-82
2021/01/04 00:38:08;;;;;;;5.80;2.83;;;3.60;99.90;;;;;;4147968;28;20672;-81
2021/01/04 00:40:23;;;;;;;5.05;3.42;;;3.70;99.90;;;;;;4174934;28;20425;-81
2021/01/04 00:43:01;;;;;;;5.65;3.13;;;3.50;99.90;;;;;;4170047;28;20036;-81
2021/01/04 00:45:19;;;;;;;4.65;3.55;;;3.50;99.90;;;;;;4124848;28;20109;-82
2021/01/04 00:47:39;;;;;;;6.82;3.17;;;3.40;99.90;;;;;;4149451;28;20032;-82
2021/01/04 00:49:46;;;;;;;3.97;3.20;;;3.40;99.90;;;;;;4172464;28;20037;-82
2021/01/04 00:52:28;;;;;;;3.83;2.85;;;3.40;99.90;;;;;;4175402;28;20056;-81
2021/01/04 00:54:52;;;;;;;5.00;3.28;;;3.40;99.90;;;;;;4160968;28;20504;-81
2021/01/04 00:56:56;;;;;;;4.00;3.05;;;3.40;99.90;;;;;;4170333;28;20047;-81
2021/01/04 00:59:19;;;;;;;5.03;3.15;;;3.40;99.90;;;;;;4157433;28;20030;-81
2021/01/04 01:02:03;;;;;;;5.18;3.35;;;3.30;99.90;;;;;;4136155;28;20118;-81
2021/01/04 01:04:30;;;;;;;3.60;3.00;;;3.30;99.90;;;;;;4172402;28;20404;-81
2021/01/04 01:06:59;;;;;;;4.80;3.75;;;3.30;99.90;;;;;;4169640;28;20031;-81
2021/01/04 01:09:01;;;;;;;4.07;2.90;;;3.20;99.90;;;;;;4162441;28;20131;-81
2021/01/04 01:11:10;;;;;;;3.83;3.00;;;3.30;99.90;;;;;;4162366;28;20029;-82
2021/01/04 01:13:34;;;;;;;4.82;3.28;;;3.20;99.90;;;;;;4145417;28;20041;-81
2021/01/04 01:16:12;;;;;;;4.28;3.20;;;3.30;99.90;;;;;;4161459;28;20041;-81
2021/01/04 01:18:38;;;;;;;4.38;3.00;;;3.30;99.90;;;;;;4144572;28;20205;-81
2021/01/04 01:20:41;;;;;;;4.47;3.00;;;3.30;99.90;;;;;;4161783;28;20041;-81
2021/01/04 01:22:43;;;;;;;4.70;3.40;;;3.40;99.90;;;;;;4178061;28;20056;-81
2021/01/04 01:24:44;;;;;;;3.65;3.08;;;3.40;99.90;;;;;;4141085;28;20612;-82
2021/01/04 01:27:22;;;;;;;4.40;3.33;;;3.40;99.90;;;;;;4178546;28;20036;-81
2021/01/04 01:29:47;;;;;;;4.63;3.60;;;3.40;99.90;;;;;;4170808;28;20083;-81
2021/01/04 01:31:56;;;;;;;5.35;3.70;;;3.40;99.90;;;;;;4153784;28;20717;-81
2021/01/04 01:34:15;;;;;;;6.55;3.55;;;3.40;99.90;;;;;;4168978;28;20588;-81
2021/01/04 01:36:44;;;;;;;4.38;3.38;;;3.40;99.90;;;;;;4176007;28;20036;-81
2021/01/04 01:38:51;;;;;;;4.05;3.10;;;3.30;99.90;;;;;;4177973;28;20040;-81
2021/01/04 01:41:17;;;;;;;5.28;3.90;;;3.40;99.90;;;;;;4168907;28;20116;-82
2021/01/04 01:43:38;;;;;;;4.72;3.60;;;3.30;99.90;;;;;;4164792;28;20041;-81
2021/01/04 01:46:04;;;;;;;5.20;3.72;;;3.30;99.90;;;;;;4169619;28;20103;-81
2021/01/04 01:48:17;;;;;;;4.50;3.25;;;3.20;99.90;;;;;;4183674;28;20146;-81
2021/01/04 01:50:30;;;;;;;4.10;3.60;;;3.20;99.90;;;;;;4165956;28;20078;-81
2021/01/04 01:52:43;;;;;;;4.43;3.28;;;3.20;99.90;;;;;;4153590;28;20022;-81
2021/01/04 01:55:11;;;;;;;5.63;4.03;;;3.20;99.90;;;;;;4148677;28;20034;-81
2021/01/04 01:57:26;;;;;;;4.93;3.88;;;3.20;99.90;;;;;;4156661;28;20033;-81
2021/01/04 01:59:59;;;;;;;4.60;3.40;;;3.20;99.90;;;;;;4168149;28;20552;-81
2021/01/04 02:02:03;;;;;;;5.60;3.72;;;3.20;99.90;;;;;;4168973;28;20021;-81
2021/01/04 02:04:15;;;;;;;4.05;3.40;;;3.20;99.90;;;;;;4172917;28;20025;-81
2021/01/04 02:06:37;;;;;;;5.55;4.35;;;3.20;99.90;;;;;;4174210;28;20025;-81
2021/01/04 02:08:57;;;;;;;6.20;4.30;;;3.20;99.90;;;;;;4168654;28;20029;-81
2021/01/04 02:11:04;;;;;;;4.68;4.03;;;3.20;99.90;;;;;;4158562;28;20482;-81
2021/01/04 02:13:21;;;;;;;6.30;4.47;;;3.20;99.90;;;;;;4171304;28;20529;-81
2021/01/04 02:15:27;;;;;;;7.85;4.88;;;3.20;99.90;;;;;;4176043;28;20029;-81
2021/01/04 02:18:04;;;;;;;5.13;3.97;;;3.20;99.90;;;;;;4165724;28;20018;-82
2021/01/04 02:20:42;;;;;;;6.30;3.70;;;3.20;99.90;;;;;;4166948;28;20033;-82
2021/01/04 02:23:14;;;;;;;5.75;4.03;;;3.20;99.90;;;;;;4180471;28;20393;-81
2021/01/04 02:25:14;;;;;;;5.15;4.05;;;3.20;99.90;;;;;;4168678;28;20112;-81
2021/01/04 02:27:30;;;;;;;5.93;4.38;;;3.10;99.90;;;;;;4152247;28;20143;-81
2021/01/04 02:29:30;;;;;;;5.03;4.38;;;3.10;99.90;;;;;;4191771;28;20040;-81
2021/01/04 02:31:42;;;;;;;7.18;5.03;;;3.10;99.90;;;;;;4178711;28;20037;-81
2021/01/04 02:33:43;;;;;;;6.28;4.85;;;3.00;99.90;;;;;;4182647;28;20084;-81
2021/01/04 02:35:45;;;;;;;5.38;4.28;;;2.90;99.90;;;;;;4183716;28;20116;-81
2021/01/04 02:37:46;;;;;;;;;;;3.00;99.90;;;;;;4175476;28;20044;-81
2021/01/04 02:39:51;;;;;;;6.18;4.25;;;3.00;99.90;;;;;;4168140;28;19913;-81
2021/01/04 02:41:57;;;;;;;6.43;4.40;;;3.00;99.90;;;;;;4160951;28;20766;-82
2021/01/04 02:43:58;;;;;;;7.10;4.82;;;2.90;99.90;;;;;;4174148;28;20037;-82
2021/01/04 02:46:07;;;;;;;5.32;4.75;;;3.00;99.90;;;;;;4170839;28;20033;-82
2021/01/04 02:48:26;;;;;;;5.68;4.50;;;3.00;99.90;;;;;;4170258;28;20041;-82
2021/01/04 02:50:49;;;;;;;5.30;4.38;;;3.00;99.90;;;;;;4170185;28;20644;-82
2021/01/04 02:53:01;;;;;;;;;;;3.00;99.90;;;;;;4174000;28;20392;-81
2021/01/04 02:55:12;;;;;;;5.03;4.30;;;3.10;99.90;;;;;;4168841;28;19913;-81
2021/01/04 02:57:27;;;;;;;7.13;3.97;;;3.10;99.90;;;;;;4181987;28;20037;-81
2021/01/04 02:59:44;;;;;;;3.97;3.53;;;3.10;99.90;;;;;;4171949;28;20055;-81
2021/01/04 03:01:44;;;;;;;5.28;3.88;;;3.10;99.90;;;;;;4165044;28;20036;-81
2021/01/04 03:03:48;;;;;;;6.47;4.78;;;3.10;99.90;;;;;;4158540;28;20030;-81
2021/01/04 03:05:49;;;;;;;5.55;4.30;;;3.20;99.90;;;;;;4169555;28;20053;-81
2021/01/04 03:07:56;;;;;;;6.30;4.53;;;3.10;99.90;;;;;;4175259;28;20033;-81
2021/01/04 03:10:00;;;;;;;5.88;4.22;;;3.10;99.90;;;;;;4178404;28;20109;-81
2021/01/04 03:12:06;;;;;;;6.05;4.82;;;3.00;99.90;;;;;;4169009;28;20033;-81
2021/01/04 03:14:24;;;;;;;5.28;4.60;;;3.10;99.90;;;;;;4163296;28;20505;-82
2021/01/04 03:16:49;;;;;;;6.32;5.00;;;3.00;99.90;;;;;;4154373;28;20518;-81
2021/01/04 03:18:55;;;;;;;6.07;4.70;;;3.00;99.90;;;;;;4168410;28;20057;-81
2021/01/04 03:20:55;;;;;;;6.75;4.75;;;3.00;99.90;;;;;;4167462;28;20745;-81
2021/01/04 03:22:56;;;;;;;5.13;4.15;;;3.00;99.90;;;;;;4163049;28;20037;-81
2021/01/04 03:24:57;;;;;;;6.63;4.80;;;3.00;99.90;;;;;;4170960;28;20033;-81
2021/01/04 03:27:10;;;;;;;5.50;4.40;;;3.00;99.90;;;;;;4148912;28;20544;-81
2021/01/04 03:29:13;;;;;;;5.55;4.50;;;3.00;99.90;;;;;;4171003;28;20029;-81
2021/01/04 03:31:21;;;;;;;5.10;4.50;;;3.00;99.90;;;;;;4169379;28;20504;-81
2021/01/04 03:33:22;;;;;;;6.38;5.05;;;3.00;99.90;;;;;;4176847;28;20045;-81
2021/01/04 03:35:23;;;;;;;5.23;4.40;;;3.00;99.90;;;;;;4169211;28;20088;-81
2021/01/04 03:37:24;;;;;;;7.45;5.13;;;3.00;99.90;;;;;;4168447;28;20256;-81
2021/01/04 03:39:28;;;;;;;7.60;4.90;;;3.00;99.90;;;;;;4165358;28;20045;-81
2021/01/04 03:41:50;;;;;;;5.70;4.40;;;2.90;99.90;;;;;;4169567;28;20059;-81
2021/01/04 03:43:51;;;;;;;6.40;5.20;;;3.00;99.90;;;;;;4151857;28;20049;-81
2021/01/04 03:46:03;;;;;;;6.32;4.78;;;3.00;99.90;;;;;;4173615;28;20422;-81
2021/01/04 03:48:05;;;;;;;6.40;5.18;;;3.00;99.90;;;;;;4172598;28;20037;-81
2021/01/04 03:50:07;;;;;;;6.68;5.10;;;2.90;99.90;;;;;;4166700;28;20028;-81
2021/01/04 03:52:07;;;;;;;6.60;4.82;;;2.90;99.90;;;;;;4150044;28;20402;-81
2021/01/04 03:54:08;;;;;;;5.95;5.30;;;2.90;99.90;;;;;;4176480;28;20025;-81
2021/01/04 03:56:19;;;;;;;6.07;4.95;;;2.90;99.90;;;;;;4155757;28;20444;-81
2021/01/04 03:58:20;;;;;;;5.85;4.95;;;2.90;99.90;;;;;;4155441;28;20034;-81
2021/01/04 04:00:21;;;;;;;6.20;5.13;;;2.90;99.90;;;;;;4165381;28;20037;-81
2021/01/04 04:02:22;;;;;;;5.47;4.55;;;2.90;99.90;;;;;;4148944;28;20036;-81
2021/01/04 04:04:24;;;;;;;6.35;5.18;;;2.90;99.90;;;;;;4178292;28;20025;-81
2021/01/04 04:06:26;;;;;;;7.20;5.00;;;2.80;99.90;;;;;;4166662;28;20053;-81
2021/01/04 04:08:26;;;;;;;6.55;5.22;;;2.80;99.90;;;;;;4153634;28;20457;-81
2021/01/04 04:10:27;;;;;;;6.00;5.28;;;2.70;99.90;;;;;;4152752;28;20026;-81
2021/01/04 04:12:28;;;;;;;6.88;5.03;;;2.70;99.90;;;;;;4178360;28;20029;-81
2021/01/04 04:14:28;;;;;;;6.05;5.00;;;2.70;99.90;;;;;;4164510;28;20485;-81
2021/01/04 04:16:29;;;;;;;5.95;4.72;;;2.70;99.90;;;;;;4176177;28;20040;-81
2021/01/04 04:18:32;;;;;;;6.13;4.82;;;2.70;99.90;;;;;;4172397;28;20115;-81
2021/01/04 04:20:33;;;;;;;;;;;2.70;99.90;;;;;;4154009;28;20096;-81
2021/01/04 04:22:35;;;;;;;6.30;5.00;;;2.70;99.90;;;;;;4159318;28;19913;-81
2021/01/04 04:24:41;;;;;;;5.93;5.00;;;2.70;99.90;;;;;;4166800;28;20037;-82
2021/01/04 04:26:42;;;;;;;6.85;5.43;;;2.70;99.90;;;;;;4160475;28;20087;-82
2021/01/04 04:28:43;;;;;;;6.63;5.35;;;2.70;99.90;;;;;;4169386;28;20129;-82
2021/01/04 04:30:43;;;;;;;6.65;5.20;;;2.70;99.90;;;;;;4178506;28;20040;-81
2021/01/04 04:33:04;;;;;;;6.45;4.97;;;2.70;99.90;;;;;;4163209;28;20516;-81
2021/01/04 04:35:08;;;;;;;6.07;5.40;;;2.70;99.90;;;;;;4149452;28;20029;-81
2021/01/04 04:37:09;;;;;;;6.65;4.82;;;2.70;99.90;;;;;;4153284;28;20061;-82
2021/01/04 04:39:12;;;;;;;6.40;4.97;;;2.70;99.90;;;;;;4170483;28;20397;-81
2021/01/04 04:41:23;;;;;;;6.13;4.97;;;2.70;99.90;;;;;;4176920;28;20074;-82
2021/01/04 04:43:52;;;;;;;8.00;4.72;;;2.70;99.90;;;;;;4166484;28;20025;-82
2021/01/04 04:45:54;;;;;;;7.13;5.07;;;2.80;99.90;;;;;;4153362;28;20057;-82
2021/01/04 04:48:17;;;;;;;6.20;4.88;;;2.70;99.90;;;;;;4169543;28;20083;-82
2021/01/04 04:50:43;;;;;;;6.43;5.40;;;2.80;99.90;;;;;;4174209;28;20040;-82
2021/01/04 04:53:17;;;;;;;6.28;4.88;;;2.70;99.90;;;;;;4169346;28;20501;-82
2021/01/04 04:55:26;;;;;;;6.45;5.28;;;2.70;99.90;;;;;;4169477;28;20531;-82
2021/01/04 04:57:51;;;;;;;6.30;5.15;;;2.70;99.90;;;;;;4169988;28;20041;-82
2021/01/04 05:00:30;;;;;;;6.20;5.25;;;2.70;99.90;;;;;;4168894;28;20037;-82
2021/01/04 05:02:59;;;;;;;6.60;4.90;;;2.80;99.90;;;;;;4136445;28;20022;-82
2021/01/04 05:05:22;;;;;;;5.78;4.75;;;2.80;99.90;;;;;;4173793;28;20469;-81
2021/01/04 05:07:41;;;;;;;;;;;2.70;99.90;;;;;;4164121;28;20045;-82
2021/01/04 05:10:16;;;;;;;7.38;5.05;;;2.70;99.90;;;;;;4165472;28;20002;-82
2021/01/04 05:12:17;;;;;;;7.25;5.60;;;2.70;99.90;;;;;;4172113;28;20022;-82
2021/01/04 05:14:24;;;;;;;6.97;5.32;;;2.70;99.90;;;;;;4169259;28;20044;-82
2021/01/04 05:17:06;;;;;;;8.15;6.13;;;2.70;99.90;;;;;;4172027;28;20048;-82
2021/01/04 05:19:41;;;;;;;9.30;5.90;;;2.70;99.90;;;;;;4148288;28;20666;-82
2021/01/04 05:22:03;;;;;;;6.65;5.10;;;2.70;99.90;;;;;;4177897;28;20143;-81
2021/01/04 05:24:36;;;;;;;6.33;5.17;;;2.80;99.90;;;;;;4168570;28;20111;-82
2021/01/04 05:27:19;;;;;;;8.65;5.95;;;2.80;99.90;;;;;;4172084;28;20083;-81
2021/01/04 05:29:33;;;;;;;9.80;6.17;;;2.80;99.90;;;;;;4156637;28;20052;-82
2021/01/04 05:32:11;;;;;;;9.55;5.50;;;2.80;99.90;;;;;;4177379;28;20289;-82
2021/01/04 05:34:31;;;;;;;8.00;5.90;;;2.80;99.90;;;;;;4170008;28;20561;-82
2021/01/04 05:36:59;;;;;;;6.70;5.32;;;2.80;99.90;;;;;;4147498;28;20042;-82
2021/01/04 05:39:20;;;;;;;8.05;5.55;;;2.80;99.90;;;;;;4169181;28;20108;-82
2021/01/04 05:41:44;;;;;;;8.38;5.80;;;2.80;99.90;;;;;;4163658;28;24502;-82
2021/01/04 05:44:05;;;;;;;9.13;5.78;;;2.90;99.90;;;;;;4192857;28;20116;-82
2021/01/04 05:46:13;;;;;;;9.05;6.18;;;2.90;99.90;;;;;;4161833;28;20059;-82
2021/01/04 05:48:51;;;;;;;8.73;5.75;;;2.90;99.90;;;;;;4167976;28;20131;-82
2021/01/04 05:51:15;;;;;;;7.55;5.55;;;2.90;99.90;;;;;;4151730;28;20041;-81
2021/01/04 05:53:16;;;;;;;8.00;5.97;;;2.90;99.90;;;;;;4171563;28;20378;-82
2021/01/04 05:55:24;;;;;;;8.32;5.97;;;2.90;99.90;;;;;;4173261;28;20059;-82
2021/01/04 05:57:25;;;;;;;6.93;5.82;;;2.90;99.90;;;;;;4181093;28;20048;-82
2021/01/04 05:59:25;;;;;;;8.07;6.10;;;2.90;99.90;;;;;;4160620;28;20025;-82
2021/01/04 06:01:29;;;;;;;7.15;5.78;;;2.90;99.90;;;;;;4177519;28;20040;-82
2021/01/04 06:03:29;;;;;;;7.68;5.85;;;3.00;99.90;;;;;;4160030;28;20660;-82
2021/01/04 06:05:30;;;;;;;8.52;6.38;;;2.90;99.90;;;;;;4160513;28;20037;-82
2021/01/04 06:07:44;;;;;;;8.18;6.20;;;2.90;99.90;;;;;;4175879;28;20033;-82
2021/01/04 06:09:58;;;;;;;8.82;5.75;;;2.90;99.90;;;;;;4176432;28;20493;-81
2021/01/04 06:12:44;;;;;;;8.45;6.35;;;2.90;99.90;;;;;;4160300;28;20506;-82
2021/01/04 06:14:59;;;;;;;6.70;5.43;;;2.90;99.90;;;;;;4138452;28;20105;-82
2021/01/04 06:17:27;;;;;;;7.32;5.93;;;2.90;99.90;;;;;;4161029;28;20033;-82
2021/01/04 06:19:34;;;;;;;8.20;6.28;;;2.90;99.90;;;;;;4169227;28;20053;-82
2021/01/04 06:21:44;;;;;;;11.98;6.30;;;2.90;99.90;;;;;;4167053;28;20111;-82
2021/01/04 06:23:44;;;;;;;7.13;5.90;;;2.90;99.90;;;;;;4137445;28;20041;-82
2021/01/04 06:26:04;;;;;;;6.97;5.50;;;3.00;99.90;;;;;;4170273;28;20033;-82
2021/01/04 06:28:10;;;;;;;7.40;5.68;;;3.00;99.90;;;;;;4167477;28;20389;-82
2021/01/04 06:30:39;;;;;;;8.60;6.45;;;2.90;99.90;;;;;;4165908;28;20025;-82
2021/01/04 06:33:08;;;;;;;6.95;5.65;;;2.90;99.90;;;;;;4163246;28;20034;-81
2021/01/04 06:35:31;;;;;;;7.78;5.70;;;2.90;99.90;;;;;;4177125;28;20703;-82
2021/01/04 06:37:32;;;;;;;8.57;6.15;;;2.90;99.90;;;;;;4167432;28;20067;-82
2021/01/04 06:40:00;;;;;;;7.35;5.43;;;2.90;99.90;;;;;;4119733;28;20095;-82
2021/01/04 06:42:21;;;;;;;8.65;5.70;;;2.90;99.90;;;;;;4168395;28;20111;-82
2021/01/04 06:44:28;;;;;;;6.65;5.90;;;2.80;99.90;;;;;;4166546;28;20393;-82
2021/01/04 06:47:00;;;;;;;7.65;5.93;;;2.80;99.90;;;;;;4154456;28;20116;-82
2021/01/04 06:49:21;;;;;;;10.20;6.28;;;2.90;99.90;;;;;;4147813;28;20029;-82
2021/01/04 06:51:56;;;;;;;7.05;5.90;;;2.80;99.90;;;;;;4168076;28;20509;-82
2021/01/04 06:54:28;;;;;;;7.57;6.07;;;2.80;99.90;;;;;;4164814;28;20038;-84
2021/01/04 06:57:05;;;;;;;9.00;6.45;;;2.80;99.90;;;;;;4157515;28;20029;-84
2021/01/04 06:59:27;;;;;;;7.00;5.45;;;2.80;99.90;;;;;;4176930;28;20574;-83
2021/01/04 07:02:05;;;;;;;7.20;5.80;;;2.80;99.90;;;;;;4176186;28;20033;-83
2021/01/04 07:04:22;;;;;;;9.30;6.47;;;2.80;99.90;;;;;;4155664;28;20030;-83
2021/01/04 07:06:59;;;;;;;8.77;6.65;;;2.80;99.90;;;;;;4172968;28;20573;-82
2021/01/04 07:09:18;;;;;;;7.90;6.38;;;2.80;99.90;;;;;;4167267;28;20102;-82
2021/01/04 07:11:31;;;;;;;8.32;6.43;;;2.80;99.90;;;;;;4156368;28;20164;-82
2021/01/04 07:14:14;;;;;;;8.02;5.78;;;2.80;99.90;;;;;;4170604;28;20044;-82
2021/01/04 07:16:16;;;;;;;13.88;6.47;;;2.80;99.90;;;;;;4133271;28;20046;-82
2021/01/04 07:18:28;;;;;;;9.13;6.53;;;2.80;99.90;;;;;;4152644;28;20026;-83
2021/01/04 07:21:21;;;;;;;8.82;6.35;;;2.90;99.90;;;;;;4172614;28;20033;-83
2021/01/04 07:23:47;;;;;;;9.52;6.82;;;2.90;99.90;;;;;;4129990;28;20087;-81
2021/01/04 07:25:53;;;;;;;6.32;5.43;;;2.90;99.90;;;;;;4170762;28;20053;-81
2021/01/04 07:28:04;;;;;;;7.70;6.05;;;2.90;99.90;;;;;;4153171;28;20033;-81
2021/01/04 07:30:20;;;;;;;7.57;5.85;;;2.90;99.90;;;;;;4171719;28;20528;-81
2021/01/04 07:32:48;;;;;;;8.00;5.80;;;3.00;99.90;;;;;;4156363;28;22328;-81
2021/01/04 07:34:53;;;;;;;8.70;6.30;;;3.00;99.90;;;;;;4179569;28;20041;-81
2021/01/04 07:37:21;;;;;;;12.02;7.47;;;2.90;99.90;;;;;;4168744;28;20030;-81
2021/01/04 07:39:46;;;;;;;10.88;7.60;;;3.00;99.90;;;;;;4168778;28;20033;-80
2021/01/04 07:41:58;;;;;;;8.90;6.15;;;3.00;99.90;;;;;;4177965;28;20041;-81
2021/01/04 07:44:07;;;;;;;10.18;6.07;;;3.00;99.90;;;;;;4169604;28;20033;-81
2021/01/04 07:46:43;;;;;;;8.10;5.93;;;3.00;99.90;;;;;;4168749;28;20033;-84
2021/01/04 07:48:58;;;;;;;8.15;5.95;;;3.00;99.90;;;;;;4174658;28;20482;-82
2021/01/04 07:51:47;;;;;;;7.78;5.88;;;3.00;99.90;;;;;;4143688;28;20125;-82
2021/01/04 07:54:27;;;;;;;8.38;6.00;;;3.00;99.90;;;;;;4171754;28;20447;-82
2021/01/04 07:57:13;;;;;;;8.77;6.35;;;3.00;99.90;;;;;;4150188;28;20113;-82
2021/01/04 08:00:05;;;;;;;8.43;6.13;;;2.90;99.90;;;;;;4135759;28;20025;-81
2021/01/04 08:02:33;;;;;;;8.48;5.93;;;3.00;99.90;;;;;;4102038;28;20038;-81
2021/01/04 08:05:31;;;;;;;6.97;5.50;;;3.00;99.90;;;;;;4176112;28;20025;-81
2021/01/04 08:07:52;;;;;;;10.10;6.43;;;3.00;99.90;;;;;;4126935;28;20516;-81
2021/01/04 08:09:58;;;;;;;7.85;5.70;;;3.00;99.90;;;;;;4140237;28;20038;-81
2021/01/04 08:12:48;;;;;;;8.57;6.70;;;3.00;99.90;;;;;;4137517;28;20037;-82
2021/01/04 08:14:58;;;;;;;9.38;6.45;;;3.00;99.90;;;;;;4169757;28;20033;-82
2021/01/04 08:17:05;;;;;;;8.98;6.30;;;3.00;99.90;;;;;;4150144;28;20018;-82
2021/01/04 08:19:08;;;;;;;6.78;5.88;;;3.00;99.90;;;;;;4157968;28;20494;-82
2021/01/04 08:21:48;;;;;;;6.63;5.22;;;3.00;99.90;;;;;;4176874;28;20067;-82
2021/01/04 08:24:25;;;;;;;7.57;5.80;;;3.00;99.90;;;;;;4173462;28;20040;-82
2021/01/04 08:27:05;;;;;;;6.50;5.38;;;3.00;99.90;;;;;;4177224;28;20033;-82
2021/01/04 08:29:28;;;;;;;9.48;6.00;;;3.00;99.90;;;;;;4153476;28;20060;-82
2021/01/04 08:31:54;;;;;;;6.38;4.97;;;3.00;99.90;;;;;;4167652;28;20025;-82
2021/01/04 08:34:01;;;;;;;6.72;5.50;;;3.00;99.90;;;;;;4168414;28;20117;-81
2021/01/04 08:36:02;;;;;;;7.30;5.82;;;3.00;99.90;;;;;;4172176;28;20025;-81
2021/01/04 08:38:27;;;;;;;8.30;5.63;;;3.00;99.90;;;;;;4163697;28;20033;-81
2021/01/04 08:40:30;;;;;;;9.38;5.72;;;3.00;99.90;;;;;;4194719;28;20443;-82
2021/01/04 08:42:32;;;;;;;6.10;4.88;;;3.00;99.90;;;;;;4161553;28;20033;-81
2021/01/04 08:44:35;;;;;;;8.45;5.72;;;3.00;99.90;;;;;;4185780;28;20028;-82
2021/01/04 08:46:36;;;;;;;8.88;6.30;;;3.10;99.90;;;;;;4195137;28;20058;-81
2021/01/04 08:48:38;;;;;;;7.72;6.20;;;3.10;99.90;;;;;;4153074;28;20157;-81
2021/01/04 08:50:41;;;;;;;10.00;7.45;;;3.10;99.90;;;;;;4157823;28;20041;-82
2021/01/04 08:52:46;;;;;;;9.23;6.78;;;3.10;99.90;;;;;;4170049;28;20025;-81
2021/01/04 08:54:58;;;;;;;9.07;6.28;;;3.10;99.90;;;;;;4177258;28;20040;-81
2021/01/04 08:57:37;;;;;;;8.38;6.00;;;3.10;99.90;;;;;;4169725;28;20707;-81
2021/01/04 09:00:17;;;;;;;6.85;5.32;;;3.10;99.90;;;;;;4158272;28;20036;-81
2021/01/04 09:02:41;;;;;;;8.95;5.10;;;3.10;99.90;;;;;;4172109;28;20123;-81
2021/01/04 09:04:44;;;;;;;7.47;5.90;;;3.10;99.90;;;;;;4171805;28;20032;-81
2021/01/04 09:06:48;;;;;;;;;;;3.10;99.90;;;;;;4165073;28;20030;-81
2021/01/04 09:08:54;;;;;;;7.00;5.57;;;3.10;99.90;;;;;;4154027;28;19932;-81
2021/01/04 09:11:05;;;;;;;7.25;5.40;;;3.10;99.90;;;;;;4168404;28;20052;-82
2021/01/04 09:13:16;;;;;;;6.32;5.20;;;3.10;99.90;;;;;;4157283;28;20072;-81
2021/01/04 09:15:23;;;;;;;8.00;5.47;;;3.10;99.90;;;;;;4168724;28;20029;-81
2021/01/04 09:17:50;;;;;;;5.53;4.55;;;3.10;99.90;;;;;;4170282;28;20063;-82
2021/01/04 09:20:05;;;;;;;6.55;5.13;;;3.10;99.90;;;;;;4131850;28;20041;-81
2021/01/04 09:22:10;;;;;;;7.28;5.30;;;3.10;99.90;;;;;;4167449;28;20033;-81
2021/01/04 09:24:29;;;;;;;6.57;4.97;;;3.10;99.90;;;;;;4168296;28;20025;-81
2021/01/04 09:26:35;;;;;;;6.47;5.18;;;3.10;99.90;;;;;;4159440;28;20104;-81
2021/01/04 09:28:41;;;;;;;7.80;5.18;;;3.20;99.90;;;;;;4167702;28;20029;-81
2021/01/04 09:30:45;;;;;;;7.55;5.25;;;3.20;99.90;;;;;;4172536;28;20021;-81
2021/01/04 09:32:46;;;;;;;8.40;5.38;;;3.10;99.90;;;;;;4150986;28;20033;-81
2021/01/04 09:34:47;;;;;;;6.38;4.68;;;3.10;99.90;;;;;;4147224;28;20042;-81
2021/01/04 09:37:01;;;;;;;6.57;4.95;;;3.20;99.90;;;;;;4166887;28;20373;-81
2021/01/04 09:39:07;;;;;;;7.18;5.00;;;3.20;99.90;;;;;;4148723;28;20503;-81
2021/01/04 09:41:11;;;;;;;7.22;4.90;;;3.20;99.90;;;;;;4168012;28;20076;-81
2021/01/04 09:43:12;;;;;;;8.10;4.75;;;3.10;99.90;;;;;;4146238;28;20026;-81
2021/01/04 09:45:20;;;;;;;5.60;4.38;;;3.10;99.90;;;;;;4165215;28;20103;-81
2021/01/04 09:47:34;;;;;;;7.22;4.82;;;3.10;99.90;;;;;;4152129;28;20029;-81
2021/01/04 09:49:46;;;;;;;5.38;4.10;;;3.10;99.90;;;;;;4166219;28;20898;-81
2021/01/04 09:52:24;;;;;;;6.95;4.43;;;3.20;99.90;;;;;;4140416;28;20122;-81
2021/01/04 09:54:33;;;;;;;5.20;4.03;;;3.10;99.90;;;;;;4171152;28;20037;-81
2021/01/04 09:56:38;;;;;;;6.20;4.28;;;3.20;99.90;;;;;;4170954;28;20095;-81
2021/01/04 09:58:39;;;;;;;5.60;4.13;;;3.10;99.90;;;;;;4161339;28;20025;-81
2021/01/04 10:00:45;;;;;;;5.97;4.13;;;3.20;99.90;;;;;;4172348;28;20064;-81
2021/01/04 10:02:45;;;;;;;8.30;4.80;;;3.20;99.90;;;;;;4170490;28;20040;-81
2021/01/04 10:04:46;;;;;;;7.97;4.80;;;3.20;99.90;;;;;;4171485;28;20026;-81
2021/01/04 10:06:47;;;;;;;7.13;4.80;;;3.20;99.90;;;;;;4152548;28;20041;-81
2021/01/04 10:08:50;;;;;;;5.80;4.00;;;3.20;99.90;;;;;;4148448;28;20042;-81
2021/01/04 10:11:08;;;;;;;4.35;3.90;;;3.30;99.90;;;;;;4165270;28;20041;-81
2021/01/04 10:13:13;;;;;;;7.13;4.50;;;3.20;99.90;;;;;;4161988;28;20089;-81
2021/01/04 10:15:29;;;;;;;5.88;4.28;;;3.20;99.90;;;;;;4148300;28;20033;-82
2021/01/04 10:17:47;;;;;;;5.68;3.92;;;3.20;99.90;;;;;;4165494;28;20080;-82
2021/01/04 10:19:59;;;;;;;5.43;3.70;;;3.30;99.90;;;;;;4167543;28;20037;-82
2021/01/04 10:22:11;;;;;;;5.55;3.80;;;3.30;99.90;;;;;;4169115;28;20025;-83
2021/01/04 10:24:36;;;;;;;5.32;3.58;;;3.30;99.90;;;;;;4173635;28;20033;-82
2021/01/04 10:26:45;;;;;;;4.90;3.85;;;3.40;99.90;;;;;;4156884;28;20026;-81
2021/01/04 10:29:06;;;;;;;4.93;3.80;;;3.40;99.90;;;;;;4157681;28;20103;-82
2021/01/04 10:31:21;;;;;;;3.85;3.05;;;3.40;99.90;;;;;;4169527;28;20029;-82
2021/01/04 10:33:34;;;;;;;5.72;3.95;;;3.40;99.90;;;;;;4175522;28;20018;-82
2021/01/04 10:35:36;;;;;;;5.47;3.42;;;3.40;99.90;;;;;;4173702;28;20178;-82
2021/01/04 10:37:43;;;;;;;;;;;3.50;99.90;;;;;;4173920;28;20032;-82
2021/01/04 10:40:01;;;;;;;6.43;3.80;;;3.40;99.90;;;;;;4170295;28;19948;-82
2021/01/04 10:42:21;;;;;;;4.05;3.08;;;3.40;99.90;;;;;;4169732;28;20037;-82
2021/01/04 10:44:27;;;;;;;5.13;3.28;;;3.40;99.90;;;;;;4156463;28;20609;-82
2021/01/04 10:46:36;;;;;;;5.72;3.88;;;3.40;99.90;;;;;;4175816;28;20073;-82
2021/01/04 10:48:36;;;;;;;5.95;4.20;;;3.40;99.90;;;;;;4175606;28;20129;-82
2021/01/04 10:50:41;;;;;;;4.88;4.00;;;3.30;99.90;;;;;;4154972;28;20081;-82
2021/01/04 10:52:53;;;;;;;4.82;3.72;;;3.30;99.90;;;;;;4170308;28;20087;-82
2021/01/04 10:55:02;;;;;;;5.55;3.83;;;3.40;99.90;;;;;;4166460;28;20414;-82
2021/01/04 10:57:26;;;;;;;6.78;4.90;;;3.30;99.90;;;;;;4164772;28;20033;-82
2021/01/04 10:59:38;;;;;;;6.85;4.72;;;3.30;99.90;;;;;;4167810;28;20041;-82
2021/01/04 11:01:42;;;;;;;6.45;4.38;;;3.30;99.90;;;;;;4158419;28;20608;-82
2021/01/04 11:03:56;;;;;;;5.47;4.38;;;3.20;99.90;;;;;;4169012;28;20051;-82
2021/01/04 11:05:59;;;;;;;7.90;5.15;;;3.30;99.90;;;;;;4173999;28;20362;-83
2021/01/04 11:08:40;;;;;;;6.68;5.05;;;3.30;99.90;;;;;;4176864;28;20104;-82
2021/01/04 11:10:59;;;;;;;5.93;4.55;;;3.30;99.90;;;;;;4171102;28;20033;-83
2021/01/04 11:13:07;;;;;;;7.10;5.13;;;3.30;99.90;;;;;;4169879;28;20669;-82
2021/01/04 11:15:08;;;;;;;7.75;5.43;;;3.30;99.90;;;;;;4156695;28;20064;-82
2021/01/04 11:17:19;;;;;;;8.30;6.18;;;3.30;99.90;;;;;;4169200;28;20044;-82
2021/01/04 11:19:28;;;;;;;7.47;5.43;;;3.30;99.90;;;;;;4159216;28;20084;-83
2021/01/04 11:21:38;;;;;;;8.60;5.90;;;3.20;99.90;;;;;;4153694;28;20627;-83
2021/01/04 11:23:39;;;;;;;7.95;5.85;;;3.20;99.90;;;;;;4171438;28;20029;-83
2021/01/04 11:25:48;;;;;;;8.75;6.10;;;3.20;99.90;;;;;;4175096;28;20029;-82
2021/01/04 11:27:49;;;;;;;8.35;6.03;;;3.30;99.90;;;;;;4145565;28;20083;-82
2021/01/04 11:29:50;;;;;;;9.35;6.45;;;3.30;99.90;;;;;;4157977;28;20061;-82
2021/01/04 11:31:52;;;;;;;8.60;6.20;;;3.20;99.90;;;;;;4170145;28;20121;-82
2021/01/04 11:33:52;;;;;;;10.05;6.68;;;3.20;99.90;;;;;;4170297;28;20112;-83
2021/01/04 11:35:54;;;;;;;9.05;6.43;;;3.20;99.90;;;;;;4150785;28;20033;-83
2021/01/04 11:38:00;;;;;;;9.07;6.88;;;3.20;99.90;;;;;;4168816;28;20485;-83
2021/01/04 11:40:02;;;;;;;9.93;6.50;;;3.20;99.90;;;;;;4151424;28;20097;-82
2021/01/04 11:42:05;;;;;;;9.00;6.20;;;3.20;99.90;;;;;;4173641;28;20095;-83
2021/01/04 11:44:07;;;;;;;10.45;6.85;;;3.20;99.90;;;;;;4170273;28;20085;-83
2021/01/04 11:46:10;;;;;;;9.65;6.45;;;3.30;99.90;;;;;;4172297;28;20048;-82
2021/01/04 11:48:29;;;;;;;9.70;7.00;;;3.30;99.90;;;;;;4154178;28;20049;-82
2021/01/04 11:50:30;;;;;;;8.55;6.35;;;3.30;99.90;;;;;;4169495;28;20042;-83